sensor_id;sensor_type;location;lat;lon;timestamp;P1;durP1;ratioP1;P2;durP2;ratioP2
63320;SDS011;49449;48.800;9.534;2022-11-14T00:01:22;11.18;;;8.45;;
63320;SDS011;49449;48.800;9.534;2022-11-14T00:03:50;10.48;;;8.18;;
63320;SDS011;49449;48.800;9.534;2022-11-14T00:06:18;9.40;;;8.40;;
63320;SDS011;49449;48.800;9.534;2022-11-14T00:08:46;9.70;;;7.97;;
63320;SDS011;49449;48.800;9.534;2022-11-14T00:11:17;11.40;;;8.35;;
63320;SDS011;49449;48.800;9.534;2022-11-14T00:13:45;11.80;;;8.30;;
63320;SDS011;49449;48.800;9.534;2022-11-14T00:16:13;10.68;;;8.45;;
63320;SDS011;49449;48.800;9.534;2022-11-14T00:18:40;11.02;;;8.60;;
63320;SDS011;49449;48.800;9.534;2022-11-14T00:21:10;11.50;;;7.82;;
63320;SDS011;49449;48.800;9.534;2022-11-14T00:23:38;12.40;;;8.43;;
63320;SDS011;49449;48.800;9.534;2022-11-14T00:26:09;11.57;;;8.27;;
63320;SDS011;49449;48.800;9.534;2022-11-14T00:28:38;10.20;;;7.90;;
63320;SDS011;49449;48.800;9.534;2022-11-14T00:31:08;10.63;;;7.60;;
63320;SDS011;49449;48.800;9.534;2022-11-14T00:33:36;10.18;;;8.27;;
63320;SDS011;49449;48.800;9.534;2022-11-14T00:36:04;10.40;;;8.10;;
63320;SDS011;49449;48.800;9.534;2022-11-14T00:38:32;9.20;;;7.85;;
63320;SDS011;49449;48.800;9.534;2022-11-14T00:40:59;9.80;;;7.70;;
63320;SDS011;49449;48.800;9.534;2022-11-14T00:43:30;9.50;;;7.57;;
63320;SDS011;49449;48.800;9.534;2022-11-14T00:45:59;9.05;;;7.25;;
63320;SDS011;49449;48.800;9.534;2022-11-14T00:48:27;10.30;;;8.00;;
63320;SDS011;49449;48.800;9.534;2022-11-14T00:50:55;10.65;;;7.28;;
63320;SDS011;49449;48.800;9.534;2022-11-14T00:53:24;9.55;;;8.40;;
63320;SDS011;49449;48.800;9.534;2022-11-14T00:55:51;9.00;;;7.70;;
63320;SDS011;49449;48.800;9.534;2022-11-14T00:58:19;10.60;;;8.27;;
63320;SDS011;49449;48.800;9.534;2022-11-14T01:00:47;9.98;;;7.97;;
63320;SDS011;49449;48.800;9.534;2022-11-14T01:03:18;10.52;;;7.82;;
63320;SDS011;49449;48.800;9.534;2022-11-14T01:05:46;11.02;;;8.07;;
63320;SDS011;49449;48.800;9.534;2022-11-14T01:08:17;9.50;;;7.60;;
63320;SDS011;49449;48.800;9.534;2022-11-14T01:10:46;10.38;;;7.68;;
63320;SDS011;49449;48.800;9.534;2022-11-14T01:13:16;11.07;;;8.65;;
63320;SDS011;49449;48.800;9.534;2022-11-14T01:15:45;10.55;;;8.18;;
63320;SDS011;49449;48.800;9.534;2022-11-14T01:18:15;11.50;;;8.80;;
63320;SDS011;49449;48.800;9.534;2022-11-14T01:20:48;11.52;;;8.95;;
63320;SDS011;49449;48.800;9.534;2022-11-14T01:23:16;12.35;;;8.93;;
63320;SDS011;49449;48.800;9.534;2022-11-14T01:25:46;10.73;;;9.00;;
63320;SDS011;49449;48.800;9.534;2022-11-14T01:28:15;10.63;;;8.77;;
63320;SDS011;49449;48.800;9.534;2022-11-14T01:30:45;11.05;;;8.02;;
63320;SDS011;49449;48.800;9.534;2022-11-14T01:33:13;12.15;;;9.77;;
63320;SDS011;49449;48.800;9.534;2022-11-14T01:35:40;13.07;;;11.05;;
63320;SDS011;49449;48.800;9.534;2022-11-14T01:38:11;12.68;;;9.23;;
63320;SDS011;49449;48.800;9.534;2022-11-14T01:40:41;13.20;;;9.52;;
63320;SDS011;49449;48.800;9.534;2022-11-14T01:43:26;12.68;;;10.00;;
63320;SDS011;49449;48.800;9.534;2022-11-14T01:45:57;12.57;;;10.40;;
63320;SDS011;49449;48.800;9.534;2022-11-14T01:48:31;12.27;;;9.38;;
63320;SDS011;49449;48.800;9.534;2022-11-14T01:51:04;11.30;;;9.40;;
63320;SDS011;49449;48.800;9.534;2022-11-14T01:53:42;12.27;;;9.85;;
63320;SDS011;49449;48.800;9.534;2022-11-14T01:56:12;11.77;;;9.48;;
63320;SDS011;49449;48.800;9.534;2022-11-14T01:58:45;12.18;;;9.60;;
63320;SDS011;49449;48.800;9.534;2022-11-14T02:01:16;11.55;;;9.75;;
63320;SDS011;49449;48.800;9.534;2022-11-14T02:03:45;12.55;;;10.27;;
63320;SDS011;49449;48.800;9.534;2022-11-14T02:06:18;11.68;;;9.90;;
63320;SDS011;49449;48.800;9.534;2022-11-14T02:08:50;11.70;;;9.05;;
63320;SDS011;49449;48.800;9.534;2022-11-14T02:11:21;13.48;;;10.77;;
63320;SDS011;49449;48.800;9.534;2022-11-14T02:13:49;11.65;;;8.57;;
63320;SDS011;49449;48.800;9.534;2022-11-14T02:16:20;13.60;;;9.77;;
63320;SDS011;49449;48.800;9.534;2022-11-14T02:18:47;12.98;;;10.52;;
63320;SDS011;49449;48.800;9.534;2022-11-14T02:21:16;12.88;;;10.32;;
63320;SDS011;49449;48.800;9.534;2022-11-14T02:23:44;14.73;;;11.65;;
63320;SDS011;49449;48.800;9.534;2022-11-14T02:26:14;12.13;;;10.77;;
63320;SDS011;49449;48.800;9.534;2022-11-14T02:28:43;10.77;;;8.57;;
63320;SDS011;49449;48.800;9.534;2022-11-14T02:31:12;12.38;;;9.77;;
63320;SDS011;49449;48.800;9.534;2022-11-14T02:33:40;13.48;;;9.70;;
63320;SDS011;49449;48.800;9.534;2022-11-14T02:36:08;14.10;;;10.07;;
63320;SDS011;49449;48.800;9.534;2022-11-14T02:38:38;11.18;;;8.55;;
63320;SDS011;49449;48.800;9.534;2022-11-14T02:41:05;13.05;;;9.63;;
63320;SDS011;49449;48.800;9.534;2022-11-14T02:43:33;11.13;;;9.40;;
63320;SDS011;49449;48.800;9.534;2022-11-14T02:46:01;15.40;;;11.38;;
63320;SDS011;49449;48.800;9.534;2022-11-14T02:48:30;14.75;;;10.57;;
63320;SDS011;49449;48.800;9.534;2022-11-14T02:50:58;12.32;;;9.57;;
63320;SDS011;49449;48.800;9.534;2022-11-14T02:53:26;12.07;;;9.35;;
63320;SDS011;49449;48.800;9.534;2022-11-14T02:55:55;13.38;;;9.25;;
63320;SDS011;49449;48.800;9.534;2022-11-14T02:58:23;12.98;;;9.30;;
63320;SDS011;49449;48.800;9.534;2022-11-14T03:00:50;10.68;;;8.52;;
63320;SDS011;49449;48.800;9.534;2022-11-14T03:03:38;12.73;;;9.18;;
63320;SDS011;49449;48.800;9.534;2022-11-14T03:06:06;13.80;;;9.23;;
63320;SDS011;49449;48.800;9.534;2022-11-14T03:08:36;12.27;;;9.38;;
63320;SDS011;49449;48.800;9.534;2022-11-14T03:11:06;13.75;;;9.50;;
63320;SDS011;49449;48.800;9.534;2022-11-14T03:13:37;12.00;;;8.57;;
63320;SDS011;49449;48.800;9.534;2022-11-14T03:16:05;14.43;;;10.20;;
63320;SDS011;49449;48.800;9.534;2022-11-14T03:18:34;13.68;;;10.00;;
63320;SDS011;49449;48.800;9.534;2022-11-14T03:21:05;19.42;;;11.55;;
63320;SDS011;49449;48.800;9.534;2022-11-14T03:23:38;18.65;;;11.32;;
63320;SDS011;49449;48.800;9.534;2022-11-14T03:26:08;18.23;;;11.02;;
63320;SDS011;49449;48.800;9.534;2022-11-14T03:28:37;15.57;;;10.27;;
63320;SDS011;49449;48.800;9.534;2022-11-14T03:31:05;14.23;;;8.80;;
63320;SDS011;49449;48.800;9.534;2022-11-14T03:33:35;13.52;;;8.68;;
63320;SDS011;49449;48.800;9.534;2022-11-14T03:36:03;14.68;;;9.50;;
63320;SDS011;49449;48.800;9.534;2022-11-14T03:38:31;24.23;;;11.15;;
63320;SDS011;49449;48.800;9.534;2022-11-14T03:41:00;20.92;;;10.18;;
63320;SDS011;49449;48.800;9.534;2022-11-14T03:43:31;14.80;;;9.40;;
63320;SDS011;49449;48.800;9.534;2022-11-14T03:46:01;16.15;;;10.18;;
63320;SDS011;49449;48.800;9.534;2022-11-14T03:48:29;21.25;;;10.57;;
63320;SDS011;49449;48.800;9.534;2022-11-14T03:50:58;13.15;;;8.90;;
63320;SDS011;49449;48.800;9.534;2022-11-14T03:53:29;14.13;;;8.52;;
63320;SDS011;49449;48.800;9.534;2022-11-14T03:55:57;14.32;;;9.38;;
63320;SDS011;49449;48.800;9.534;2022-11-14T03:58:29;11.70;;;8.23;;
63320;SDS011;49449;48.800;9.534;2022-11-14T04:03:28;11.38;;;7.68;;
63320;SDS011;49449;48.800;9.534;2022-11-14T04:05:56;8.85;;;7.20;;
63320;SDS011;49449;48.800;9.534;2022-11-14T04:08:24;8.20;;;6.13;;
63320;SDS011;49449;48.800;9.534;2022-11-14T04:10:52;9.35;;;6.97;;
63320;SDS011;49449;48.800;9.534;2022-11-14T04:13:19;8.00;;;6.32;;
63320;SDS011;49449;48.800;9.534;2022-11-14T04:15:54;10.85;;;7.05;;
63320;SDS011;49449;48.800;9.534;2022-11-14T04:18:24;8.23;;;6.85;;
63320;SDS011;49449;48.800;9.534;2022-11-14T04:20:52;12.43;;;7.97;;
63320;SDS011;49449;48.800;9.534;2022-11-14T04:23:20;12.63;;;7.90;;
63320;SDS011;49449;48.800;9.534;2022-11-14T04:25:48;19.63;;;8.70;;
63320;SDS011;49449;48.800;9.534;2022-11-14T04:28:16;8.90;;;6.53;;
63320;SDS011;49449;48.800;9.534;2022-11-14T04:30:44;11.27;;;7.50;;
63320;SDS011;49449;48.800;9.534;2022-11-14T04:33:13;9.25;;;6.57;;
63320;SDS011;49449;48.800;9.534;2022-11-14T04:35:40;10.20;;;7.22;;
63320;SDS011;49449;48.800;9.534;2022-11-14T04:38:08;15.70;;;7.68;;
63320;SDS011;49449;48.800;9.534;2022-11-14T04:40:37;11.85;;;9.80;;
63320;SDS011;49449;48.800;9.534;2022-11-14T04:43:04;11.23;;;8.02;;
63320;SDS011;49449;48.800;9.534;2022-11-14T04:45:33;10.05;;;7.40;;
63320;SDS011;49449;48.800;9.534;2022-11-14T04:48:04;9.30;;;6.78;;
63320;SDS011;49449;48.800;9.534;2022-11-14T04:50:33;11.88;;;6.82;;
63320;SDS011;49449;48.800;9.534;2022-11-14T04:53:01;9.80;;;7.28;;
63320;SDS011;49449;48.800;9.534;2022-11-14T04:55:29;9.35;;;7.20;;
63320;SDS011;49449;48.800;9.534;2022-11-14T04:57:57;9.85;;;8.05;;
63320;SDS011;49449;48.800;9.534;2022-11-14T05:00:25;8.85;;;6.70;;
63320;SDS011;49449;48.800;9.534;2022-11-14T05:02:53;10.07;;;8.43;;
63320;SDS011;49449;48.800;9.534;2022-11-14T05:05:20;9.88;;;7.97;;
63320;SDS011;49449;48.800;9.534;2022-11-14T05:07:49;8.88;;;6.93;;
63320;SDS011;49449;48.800;9.534;2022-11-14T05:10:18;9.15;;;6.75;;
63320;SDS011;49449;48.800;9.534;2022-11-14T05:12:46;10.77;;;7.57;;
63320;SDS011;49449;48.800;9.534;2022-11-14T05:15:14;10.52;;;7.95;;
63320;SDS011;49449;48.800;9.534;2022-11-14T05:17:41;12.10;;;8.25;;
63320;SDS011;49449;48.800;9.534;2022-11-14T05:20:09;10.35;;;7.63;;
63320;SDS011;49449;48.800;9.534;2022-11-14T05:22:37;10.55;;;7.22;;
63320;SDS011;49449;48.800;9.534;2022-11-14T05:25:09;8.55;;;6.38;;
63320;SDS011;49449;48.800;9.534;2022-11-14T05:27:37;10.90;;;7.32;;
63320;SDS011;49449;48.800;9.534;2022-11-14T05:30:06;15.48;;;8.23;;
63320;SDS011;49449;48.800;9.534;2022-11-14T05:32:34;9.98;;;6.63;;
63320;SDS011;49449;48.800;9.534;2022-11-14T05:35:02;9.68;;;7.32;;
63320;SDS011;49449;48.800;9.534;2022-11-14T05:37:30;8.75;;;6.72;;
63320;SDS011;49449;48.800;9.534;2022-11-14T05:39:58;11.20;;;6.97;;
63320;SDS011;49449;48.800;9.534;2022-11-14T05:42:27;9.90;;;7.75;;
63320;SDS011;49449;48.800;9.534;2022-11-14T05:44:55;10.27;;;7.60;;
63320;SDS011;49449;48.800;9.534;2022-11-14T05:47:23;10.38;;;9.05;;
63320;SDS011;49449;48.800;9.534;2022-11-14T05:49:50;8.85;;;6.90;;
63320;SDS011;49449;48.800;9.534;2022-11-14T05:52:18;8.20;;;7.10;;
63320;SDS011;49449;48.800;9.534;2022-11-14T05:54:46;7.95;;;6.43;;
63320;SDS011;49449;48.800;9.534;2022-11-14T05:57:13;7.70;;;5.85;;
63320;SDS011;49449;48.800;9.534;2022-11-14T05:59:43;8.55;;;6.93;;
63320;SDS011;49449;48.800;9.534;2022-11-14T06:02:10;8.23;;;6.63;;
63320;SDS011;49449;48.800;9.534;2022-11-14T06:04:38;8.18;;;6.15;;
63320;SDS011;49449;48.800;9.534;2022-11-14T06:07:06;8.68;;;6.38;;
63320;SDS011;49449;48.800;9.534;2022-11-14T06:09:35;11.48;;;7.90;;
63320;SDS011;49449;48.800;9.534;2022-11-14T06:12:03;8.90;;;7.25;;
63320;SDS011;49449;48.800;9.534;2022-11-14T06:14:33;10.40;;;7.20;;
63320;SDS011;49449;48.800;9.534;2022-11-14T06:17:02;8.70;;;6.32;;
63320;SDS011;49449;48.800;9.534;2022-11-14T06:19:30;9.10;;;6.75;;
63320;SDS011;49449;48.800;9.534;2022-11-14T06:22:02;9.32;;;6.90;;
63320;SDS011;49449;48.800;9.534;2022-11-14T06:24:30;8.73;;;6.65;;
63320;SDS011;49449;48.800;9.534;2022-11-14T06:27:01;8.95;;;6.32;;
63320;SDS011;49449;48.800;9.534;2022-11-14T06:29:29;9.23;;;6.55;;
63320;SDS011;49449;48.800;9.534;2022-11-14T06:34:29;8.65;;;6.60;;
63320;SDS011;49449;48.800;9.534;2022-11-14T06:36:57;9.13;;;6.68;;
63320;SDS011;49449;48.800;9.534;2022-11-14T06:39:24;8.13;;;6.53;;
63320;SDS011;49449;48.800;9.534;2022-11-14T06:41:52;9.82;;;8.43;;
63320;SDS011;49449;48.800;9.534;2022-11-14T06:44:20;9.23;;;7.43;;
63320;SDS011;49449;48.800;9.534;2022-11-14T06:46:50;7.53;;;6.15;;
63320;SDS011;49449;48.800;9.534;2022-11-14T06:49:21;7.78;;;6.45;;
63320;SDS011;49449;48.800;9.534;2022-11-14T06:51:50;8.88;;;6.90;;
63320;SDS011;49449;48.800;9.534;2022-11-14T06:54:17;10.60;;;7.72;;
63320;SDS011;49449;48.800;9.534;2022-11-14T06:56:45;9.07;;;6.90;;
63320;SDS011;49449;48.800;9.534;2022-11-14T06:59:13;8.77;;;6.68;;
63320;SDS011;49449;48.800;9.534;2022-11-14T07:01:41;8.95;;;7.20;;
63320;SDS011;49449;48.800;9.534;2022-11-14T07:04:08;9.88;;;7.13;;
63320;SDS011;49449;48.800;9.534;2022-11-14T07:06:38;8.55;;;6.90;;
63320;SDS011;49449;48.800;9.534;2022-11-14T07:09:05;9.70;;;6.57;;
63320;SDS011;49449;48.800;9.534;2022-11-14T07:11:33;9.80;;;7.75;;
63320;SDS011;49449;48.800;9.534;2022-11-14T07:14:02;10.00;;;7.80;;
63320;SDS011;49449;48.800;9.534;2022-11-14T07:16:32;9.63;;;7.70;;
63320;SDS011;49449;48.800;9.534;2022-11-14T07:19:02;10.07;;;7.47;;
63320;SDS011;49449;48.800;9.534;2022-11-14T07:21:32;8.93;;;7.22;;
63320;SDS011;49449;48.800;9.534;2022-11-14T07:24:02;9.18;;;7.30;;
63320;SDS011;49449;48.800;9.534;2022-11-14T07:26:30;9.93;;;7.47;;
63320;SDS011;49449;48.800;9.534;2022-11-14T07:28:57;10.32;;;7.95;;
63320;SDS011;49449;48.800;9.534;2022-11-14T07:31:27;14.93;;;9.93;;
63320;SDS011;49449;48.800;9.534;2022-11-14T07:33:54;13.85;;;10.10;;
63320;SDS011;49449;48.800;9.534;2022-11-14T07:36:22;11.45;;;8.52;;
63320;SDS011;49449;48.800;9.534;2022-11-14T07:38:53;10.88;;;7.93;;
63320;SDS011;49449;48.800;9.534;2022-11-14T07:41:23;9.70;;;7.57;;
63320;SDS011;49449;48.800;9.534;2022-11-14T07:43:50;9.77;;;8.10;;
63320;SDS011;49449;48.800;9.534;2022-11-14T07:46:18;9.65;;;7.20;;
63320;SDS011;49449;48.800;9.534;2022-11-14T07:48:46;11.95;;;9.23;;
63320;SDS011;49449;48.800;9.534;2022-11-14T07:51:14;11.80;;;8.45;;
63320;SDS011;49449;48.800;9.534;2022-11-14T07:53:43;11.50;;;8.77;;
63320;SDS011;49449;48.800;9.534;2022-11-14T07:56:12;24.00;;;12.30;;
63320;SDS011;49449;48.800;9.534;2022-11-14T07:58:44;14.75;;;9.10;;
63320;SDS011;49449;48.800;9.534;2022-11-14T08:01:12;16.60;;;10.65;;
63320;SDS011;49449;48.800;9.534;2022-11-14T08:03:41;15.30;;;9.95;;
63320;SDS011;49449;48.800;9.534;2022-11-14T08:06:11;12.02;;;8.40;;
63320;SDS011;49449;48.800;9.534;2022-11-14T08:08:40;11.50;;;8.30;;
63320;SDS011;49449;48.800;9.534;2022-11-14T08:11:08;11.20;;;7.78;;
63320;SDS011;49449;48.800;9.534;2022-11-14T08:13:37;11.95;;;8.77;;
63320;SDS011;49449;48.800;9.534;2022-11-14T08:16:07;10.13;;;7.63;;
63320;SDS011;49449;48.800;9.534;2022-11-14T08:18:38;11.13;;;7.63;;
63320;SDS011;49449;48.800;9.534;2022-11-14T08:21:06;10.63;;;7.60;;
63320;SDS011;49449;48.800;9.534;2022-11-14T08:23:34;12.02;;;8.98;;
63320;SDS011;49449;48.800;9.534;2022-11-14T08:26:02;10.57;;;7.60;;
63320;SDS011;49449;48.800;9.534;2022-11-14T08:28:30;13.20;;;9.48;;
63320;SDS011;49449;48.800;9.534;2022-11-14T08:30:58;11.57;;;8.23;;
63320;SDS011;49449;48.800;9.534;2022-11-14T08:33:32;11.98;;;9.05;;
63320;SDS011;49449;48.800;9.534;2022-11-14T08:36:00;11.35;;;8.40;;
63320;SDS011;49449;48.800;9.534;2022-11-14T08:38:29;10.05;;;8.05;;
63320;SDS011;49449;48.800;9.534;2022-11-14T08:41:00;12.10;;;8.40;;
63320;SDS011;49449;48.800;9.534;2022-11-14T08:43:28;10.60;;;9.00;;
63320;SDS011;49449;48.800;9.534;2022-11-14T08:45:56;10.82;;;8.65;;
63320;SDS011;49449;48.800;9.534;2022-11-14T08:48:27;13.07;;;8.43;;
63320;SDS011;49449;48.800;9.534;2022-11-14T08:50:56;12.13;;;8.38;;
63320;SDS011;49449;48.800;9.534;2022-11-14T08:53:24;11.02;;;7.90;;
63320;SDS011;49449;48.800;9.534;2022-11-14T08:55:52;11.27;;;7.95;;
63320;SDS011;49449;48.800;9.534;2022-11-14T08:58:20;12.23;;;7.75;;
63320;SDS011;49449;48.800;9.534;2022-11-14T09:00:48;11.60;;;7.95;;
63320;SDS011;49449;48.800;9.534;2022-11-14T09:03:17;10.32;;;7.57;;
63320;SDS011;49449;48.800;9.534;2022-11-14T09:05:49;10.75;;;8.93;;
63320;SDS011;49449;48.800;9.534;2022-11-14T09:08:22;10.40;;;7.75;;
63320;SDS011;49449;48.800;9.534;2022-11-14T09:10:53;10.98;;;7.22;;
63320;SDS011;49449;48.800;9.534;2022-11-14T09:13:21;11.57;;;9.38;;
63320;SDS011;49449;48.800;9.534;2022-11-14T09:15:49;11.15;;;8.43;;
63320;SDS011;49449;48.800;9.534;2022-11-14T09:18:17;10.00;;;8.43;;
63320;SDS011;49449;48.800;9.534;2022-11-14T09:20:45;10.13;;;7.90;;
63320;SDS011;49449;48.800;9.534;2022-11-14T09:23:12;13.60;;;9.10;;
63320;SDS011;49449;48.800;9.534;2022-11-14T09:25:41;9.52;;;7.60;;
63320;SDS011;49449;48.800;9.534;2022-11-14T09:28:09;10.98;;;8.65;;
63320;SDS011;49449;48.800;9.534;2022-11-14T09:30:37;11.35;;;8.35;;
63320;SDS011;49449;48.800;9.534;2022-11-14T09:33:06;10.65;;;8.52;;
63320;SDS011;49449;48.800;9.534;2022-11-14T09:35:37;10.52;;;8.23;;
63320;SDS011;49449;48.800;9.534;2022-11-14T09:38:07;10.75;;;8.02;;
63320;SDS011;49449;48.800;9.534;2022-11-14T09:40:40;11.73;;;9.07;;
63320;SDS011;49449;48.800;9.534;2022-11-14T09:43:23;13.23;;;9.20;;
63320;SDS011;49449;48.800;9.534;2022-11-14T09:46:10;12.35;;;10.30;;
63320;SDS011;49449;48.800;9.534;2022-11-14T09:48:47;12.98;;;9.45;;
63320;SDS011;49449;48.800;9.534;2022-11-14T09:51:18;12.90;;;9.60;;
63320;SDS011;49449;48.800;9.534;2022-11-14T09:53:50;13.98;;;9.93;;
63320;SDS011;49449;48.800;9.534;2022-11-14T09:56:26;15.20;;;10.05;;
63320;SDS011;49449;48.800;9.534;2022-11-14T09:58:54;14.82;;;10.00;;
63320;SDS011;49449;48.800;9.534;2022-11-14T10:01:27;12.88;;;9.40;;
63320;SDS011;49449;48.800;9.534;2022-11-14T10:04:11;13.25;;;9.85;;
63320;SDS011;49449;48.800;9.534;2022-11-14T10:06:49;12.93;;;9.48;;
63320;SDS011;49449;48.800;9.534;2022-11-14T10:09:37;11.98;;;9.18;;
63320;SDS011;49449;48.800;9.534;2022-11-14T10:12:19;11.25;;;8.38;;
63320;SDS011;49449;48.800;9.534;2022-11-14T10:14:56;10.68;;;7.57;;
63320;SDS011;49449;48.800;9.534;2022-11-14T10:17:43;12.02;;;8.63;;
63320;SDS011;49449;48.800;9.534;2022-11-14T10:20:23;8.65;;;7.20;;
63320;SDS011;49449;48.800;9.534;2022-11-14T10:23:01;9.30;;;6.90;;
63320;SDS011;49449;48.800;9.534;2022-11-14T10:25:42;12.48;;;8.60;;
63320;SDS011;49449;48.800;9.534;2022-11-14T10:28:31;7.57;;;6.18;;
63320;SDS011;49449;48.800;9.534;2022-11-14T10:31:09;9.48;;;7.47;;
63320;SDS011;49449;48.800;9.534;2022-11-14T10:33:48;12.10;;;9.80;;
63320;SDS011;49449;48.800;9.534;2022-11-14T10:36:27;12.30;;;10.02;;
63320;SDS011;49449;48.800;9.534;2022-11-14T10:39:11;10.70;;;8.48;;
63320;SDS011;49449;48.800;9.534;2022-11-14T10:41:44;13.98;;;9.40;;
63320;SDS011;49449;48.800;9.534;2022-11-14T10:46:54;11.15;;;7.65;;
63320;SDS011;49449;48.800;9.534;2022-11-14T10:49:28;10.95;;;7.97;;
63320;SDS011;49449;48.800;9.534;2022-11-14T10:52:03;11.70;;;8.43;;
63320;SDS011;49449;48.800;9.534;2022-11-14T10:54:35;11.20;;;7.85;;
63320;SDS011;49449;48.800;9.534;2022-11-14T10:57:12;13.35;;;9.63;;
63320;SDS011;49449;48.800;9.534;2022-11-14T10:59:45;13.90;;;9.80;;
63320;SDS011;49449;48.800;9.534;2022-11-14T11:02:13;13.88;;;9.55;;
63320;SDS011;49449;48.800;9.534;2022-11-14T11:04:43;11.98;;;8.60;;
63320;SDS011;49449;48.800;9.534;2022-11-14T11:07:18;12.20;;;9.45;;
63320;SDS011;49449;48.800;9.534;2022-11-14T11:10:04;11.90;;;8.52;;
63320;SDS011;49449;48.800;9.534;2022-11-14T11:12:51;12.73;;;8.85;;
63320;SDS011;49449;48.800;9.534;2022-11-14T11:15:22;16.52;;;10.50;;
63320;SDS011;49449;48.800;9.534;2022-11-14T11:17:54;15.90;;;10.90;;
63320;SDS011;49449;48.800;9.534;2022-11-14T11:20:24;8.10;;;6.20;;
63320;SDS011;49449;48.800;9.534;2022-11-14T11:23:01;4.93;;;3.20;;
63320;SDS011;49449;48.800;9.534;2022-11-14T11:25:30;2.35;;;1.90;;
63320;SDS011;49449;48.800;9.534;2022-11-14T11:28:03;2.10;;;1.90;;
63320;SDS011;49449;48.800;9.534;2022-11-14T11:30:34;2.10;;;1.77;;
63320;SDS011;49449;48.800;9.534;2022-11-14T11:33:14;1.63;;;1.52;;
63320;SDS011;49449;48.800;9.534;2022-11-14T11:35:44;1.70;;;1.60;;
63320;SDS011;49449;48.800;9.534;2022-11-14T11:38:14;1.70;;;1.60;;
63320;SDS011;49449;48.800;9.534;2022-11-14T11:40:43;1.88;;;1.30;;
63320;SDS011;49449;48.800;9.534;2022-11-14T11:43:15;1.77;;;1.40;;
63320;SDS011;49449;48.800;9.534;2022-11-14T11:46:05;1.40;;;1.30;;
63320;SDS011;49449;48.800;9.534;2022-11-14T11:48:40;1.02;;;1.02;;
63320;SDS011;49449;48.800;9.534;2022-11-14T11:51:11;1.30;;;1.20;;
63320;SDS011;49449;48.800;9.534;2022-11-14T11:53:42;1.27;;;1.13;;
63320;SDS011;49449;48.800;9.534;2022-11-14T11:56:13;1.48;;;1.38;;
63320;SDS011;49449;48.800;9.534;2022-11-14T11:58:46;1.40;;;1.30;;
63320;SDS011;49449;48.800;9.534;2022-11-14T12:01:17;1.52;;;1.23;;
63320;SDS011;49449;48.800;9.534;2022-11-14T12:03:46;2.40;;;1.33;;
63320;SDS011;49449;48.800;9.534;2022-11-14T12:06:16;1.48;;;1.38;;
63320;SDS011;49449;48.800;9.534;2022-11-14T12:08:57;2.95;;;1.35;;
63320;SDS011;49449;48.800;9.534;2022-11-14T12:11:35;1.55;;;1.45;;
63320;SDS011;49449;48.800;9.534;2022-11-14T12:14:13;1.30;;;1.20;;
63320;SDS011;49449;48.800;9.534;2022-11-14T12:17:09;1.95;;;1.60;;
63320;SDS011;49449;48.800;9.534;2022-11-14T12:19:55;2.78;;;1.33;;
63320;SDS011;49449;48.800;9.534;2022-11-14T12:22:41;1.50;;;1.40;;
63320;SDS011;49449;48.800;9.534;2022-11-14T12:25:33;1.38;;;1.27;;
63320;SDS011;49449;48.800;9.534;2022-11-14T12:28:10;2.47;;;1.92;;
63320;SDS011;49449;48.800;9.534;2022-11-14T12:30:49;5.10;;;3.25;;
63320;SDS011;49449;48.800;9.534;2022-11-14T12:33:22;2.45;;;2.00;;
63320;SDS011;49449;48.800;9.534;2022-11-14T12:35:56;3.20;;;1.90;;
63320;SDS011;49449;48.800;9.534;2022-11-14T12:38:27;1.95;;;1.60;;
63320;SDS011;49449;48.800;9.534;2022-11-14T12:41:01;3.53;;;1.88;;
63320;SDS011;49449;48.800;9.534;2022-11-14T12:43:30;2.65;;;2.10;;
63320;SDS011;49449;48.800;9.534;2022-11-14T12:46:02;1.30;;;1.20;;
63320;SDS011;49449;48.800;9.534;2022-11-14T12:48:36;1.63;;;1.45;;
63320;SDS011;49449;48.800;9.534;2022-11-14T12:51:46;1.50;;;1.40;;
63320;SDS011;49449;48.800;9.534;2022-11-14T12:57:16;5.57;;;3.35;;
63320;SDS011;49449;48.800;9.534;2022-11-14T13:00:06;1.80;;;1.40;;
63320;SDS011;49449;48.800;9.534;2022-11-14T13:02:48;1.52;;;1.42;;
63320;SDS011;49449;48.800;9.534;2022-11-14T13:05:53;1.80;;;1.52;;
63320;SDS011;49449;48.800;9.534;2022-11-14T13:08:32;1.30;;;1.20;;
63320;SDS011;49449;48.800;9.534;2022-11-14T13:14:30;1.58;;;1.00;;
63320;SDS011;49449;48.800;9.534;2022-11-14T13:20:24;2.55;;;1.50;;
63320;SDS011;49449;48.800;9.534;2022-11-14T13:26:40;2.50;;;1.52;;
63320;SDS011;49449;48.800;9.534;2022-11-14T13:35:36;3.67;;;1.50;;
63320;SDS011;49449;48.800;9.534;2022-11-14T13:38:31;1.83;;;1.65;;
63320;SDS011;49449;48.800;9.534;2022-11-14T13:41:26;1.25;;;1.20;;
63320;SDS011;49449;48.800;9.534;2022-11-14T13:47:25;2.90;;;2.00;;
63320;SDS011;49449;48.800;9.534;2022-11-14T13:50:03;1.60;;;1.50;;
63320;SDS011;49449;48.800;9.534;2022-11-14T13:52:34;1.40;;;1.30;;
63320;SDS011;49449;48.800;9.534;2022-11-14T13:55:15;1.92;;;1.70;;
63320;SDS011;49449;48.800;9.534;2022-11-14T13:57:48;1.73;;;1.63;;
63320;SDS011;49449;48.800;9.534;2022-11-14T14:00:28;2.03;;;1.52;;
63320;SDS011;49449;48.800;9.534;2022-11-14T14:06:02;1.58;;;1.48;;
63320;SDS011;49449;48.800;9.534;2022-11-14T14:08:48;2.42;;;1.60;;
63320;SDS011;49449;48.800;9.534;2022-11-14T14:11:34;1.60;;;1.50;;
63320;SDS011;49449;48.800;9.534;2022-11-14T14:14:13;1.98;;;1.77;;
63320;SDS011;49449;48.800;9.534;2022-11-14T14:16:56;2.28;;;1.80;;
63320;SDS011;49449;48.800;9.534;2022-11-14T14:19:31;2.90;;;2.10;;
63320;SDS011;49449;48.800;9.534;2022-11-14T14:22:10;1.98;;;1.60;;
63320;SDS011;49449;48.800;9.534;2022-11-14T14:24:49;2.33;;;2.13;;
63320;SDS011;49449;48.800;9.534;2022-11-14T14:27:23;3.33;;;1.67;;
63320;SDS011;49449;48.800;9.534;2022-11-14T14:29:58;1.98;;;1.77;;
63320;SDS011;49449;48.800;9.534;2022-11-14T14:32:31;1.77;;;1.67;;
63320;SDS011;49449;48.800;9.534;2022-11-14T14:35:02;4.55;;;2.63;;
63320;SDS011;49449;48.800;9.534;2022-11-14T14:37:50;3.33;;;2.75;;
63320;SDS011;49449;48.800;9.534;2022-11-14T14:40:22;5.68;;;3.10;;
63320;SDS011;49449;48.800;9.534;2022-11-14T14:42:51;2.45;;;2.17;;
63320;SDS011;49449;48.800;9.534;2022-11-14T14:45:21;2.05;;;1.83;;
63320;SDS011;49449;48.800;9.534;2022-11-14T14:47:57;2.28;;;1.88;;
63320;SDS011;49449;48.800;9.534;2022-11-14T14:50:27;2.95;;;2.30;;
63320;SDS011;49449;48.800;9.534;2022-11-14T14:53:05;3.20;;;2.45;;
63320;SDS011;49449;48.800;9.534;2022-11-14T14:55:34;2.78;;;2.20;;
63320;SDS011;49449;48.800;9.534;2022-11-14T14:58:12;2.38;;;1.90;;
63320;SDS011;49449;48.800;9.534;2022-11-14T15:00:49;3.17;;;2.45;;
63320;SDS011;49449;48.800;9.534;2022-11-14T15:03:23;3.78;;;2.30;;
63320;SDS011;49449;48.800;9.534;2022-11-14T15:05:56;3.60;;;2.00;;
63320;SDS011;49449;48.800;9.534;2022-11-14T15:08:25;4.25;;;2.53;;
63320;SDS011;49449;48.800;9.534;2022-11-14T15:10:56;4.65;;;2.78;;
63320;SDS011;49449;48.800;9.534;2022-11-14T15:13:26;4.68;;;2.72;;
63320;SDS011;49449;48.800;9.534;2022-11-14T15:15:57;3.40;;;2.53;;
63320;SDS011;49449;48.800;9.534;2022-11-14T15:18:30;2.95;;;2.67;;
63320;SDS011;49449;48.800;9.534;2022-11-14T15:21:05;3.95;;;2.85;;
63320;SDS011;49449;48.800;9.534;2022-11-14T15:23:34;2.78;;;2.35;;
63320;SDS011;49449;48.800;9.534;2022-11-14T15:26:08;4.00;;;2.30;;
63320;SDS011;49449;48.800;9.534;2022-11-14T15:28:40;4.20;;;2.20;;
63320;SDS011;49449;48.800;9.534;2022-11-14T15:31:14;2.88;;;1.80;;
63320;SDS011;49449;48.800;9.534;2022-11-14T15:33:58;2.63;;;2.42;;
63320;SDS011;49449;48.800;9.534;2022-11-14T15:36:27;2.38;;;2.10;;
63320;SDS011;49449;48.800;9.534;2022-11-14T15:38:59;2.50;;;1.90;;